createdAt,value
2022-11-17T00:02:38.511Z,4.90
2022-11-17T00:09:24.186Z,4.85
2022-11-17T00:16:10.599Z,5.40
2022-11-17T00:22:58.588Z,4.13
2022-11-17T00:29:44.096Z,4.85
2022-11-17T00:36:30.087Z,5.10
2022-11-17T00:43:18.052Z,4.90
2022-11-17T00:50:05.654Z,5.28
2022-11-17T00:56:51.529Z,5.00
2022-11-17T01:03:40.662Z,4.78
2022-11-17T01:10:26.090Z,4.68
2022-11-17T01:17:11.649Z,4.50
2022-11-17T01:24:02.562Z,4.70
2022-11-17T01:30:48.190Z,4.80
2022-11-17T01:37:34.057Z,5.35
2022-11-17T01:44:57.464Z,5.20
2022-11-17T01:51:47.942Z,5.13
2022-11-17T01:58:38.249Z,5.03
2022-11-17T02:05:52.879Z,4.72
2022-11-17T02:12:40.039Z,5.40
2022-11-17T02:19:28.856Z,5.03
2022-11-17T02:27:12.253Z,5.30
2022-11-17T02:34:13.643Z,5.00
2022-11-17T02:41:08.102Z,5.50
2022-11-17T02:47:57.926Z,5.45
2022-11-17T02:54:46.058Z,5.38
2022-11-17T03:01:52.346Z,5.80
2022-11-17T03:08:50.964Z,5.60
2022-11-17T03:15:50.250Z,5.63
2022-11-17T03:22:46.766Z,5.18
2022-11-17T03:29:36.394Z,5.35
2022-11-17T03:36:31.604Z,5.22
2022-11-17T03:43:20.324Z,5.70
2022-11-17T04:03:57.068Z,5.47
2022-11-17T04:10:54.731Z,5.43
2022-11-17T04:17:40.551Z,5.55
2022-11-17T04:24:28.599Z,5.70
2022-11-17T04:31:17.359Z,5.45
2022-11-17T04:38:02.713Z,5.40
2022-11-17T04:44:50.688Z,5.10
2022-11-17T04:51:37.443Z,5.50
2022-11-17T05:05:12.047Z,5.32
2022-11-17T05:12:12.389Z,5.80
2022-11-17T05:18:58.093Z,6.10
2022-11-17T05:25:46.136Z,5.80
2022-11-17T05:32:31.488Z,5.72
2022-11-17T05:39:16.996Z,6.00
2022-11-17T05:46:05.116Z,5.80
2022-11-17T05:52:51.341Z,6.00
2022-11-17T05:59:41.378Z,5.60
2022-11-17T06:06:29.597Z,5.90
2022-11-17T06:13:15.023Z,5.70
2022-11-17T06:20:05.204Z,5.32
2022-11-17T06:26:53.374Z,5.78
2022-11-17T06:33:41.337Z,5.28
2022-11-17T06:40:26.779Z,5.03
2022-11-17T06:47:14.785Z,5.38
2022-11-17T06:54:00.262Z,5.40
2022-11-17T07:00:45.855Z,5.78
2022-11-17T07:07:34.047Z,5.30
2022-11-17T07:14:20.422Z,5.20
2022-11-17T07:21:07.531Z,5.80
2022-11-17T07:28:02.080Z,5.65
2022-11-17T07:34:47.540Z,5.70
2022-11-17T07:41:33.062Z,5.00
2022-11-17T07:48:21.240Z,5.90
2022-11-17T07:55:07.926Z,5.75
2022-11-17T08:01:53.439Z,5.50
2022-11-17T08:08:42.174Z,5.63
2022-11-17T08:15:27.981Z,5.68
2022-11-17T08:22:14.480Z,5.47
2022-11-17T08:29:02.637Z,6.15
2022-11-17T08:35:48.113Z,5.90
2022-11-17T08:42:33.537Z,5.60
2022-11-17T08:49:21.711Z,5.55
2022-11-17T08:56:10.836Z,5.82
2022-11-17T09:02:56.228Z,5.60
2022-11-17T09:09:46.192Z,5.43
2022-11-17T09:16:31.701Z,5.82
2022-11-17T09:23:17.131Z,6.05
2022-11-17T09:30:05.455Z,5.88
2022-11-17T09:36:51.433Z,6.07
2022-11-17T09:43:41.521Z,6.30
2022-11-17T09:50:34.459Z,5.60
2022-11-17T09:57:28.739Z,5.90
2022-11-17T10:04:17.471Z,5.78
2022-11-17T10:11:26.616Z,5.63
2022-11-17T10:18:16.636Z,6.00
2022-11-17T10:25:02.157Z,6.10
2022-11-17T10:31:50.312Z,5.43
2022-11-17T10:38:37.497Z,6.18
2022-11-17T10:45:23.398Z,6.03
2022-11-17T10:52:21.303Z,5.37
2022-11-17T10:59:18.125Z,5.53
2022-11-17T11:06:21.392Z,5.28
2022-11-17T11:13:22.212Z,5.45
2022-11-17T11:20:10.198Z,5.60
2022-11-17T11:27:09.762Z,5.40
2022-11-17T11:34:10.406Z,5.00
2022-11-17T11:41:17.309Z,4.57
2022-11-17T11:48:24.009Z,5.00
2022-11-17T11:55:23.869Z,4.88
2022-11-17T12:02:26.100Z,4.80
2022-11-17T12:09:46.583Z,4.38
2022-11-17T12:16:40.177Z,4.10
2022-11-17T12:23:57.346Z,4.50
2022-11-17T12:30:58.446Z,4.40
2022-11-17T12:37:46.414Z,4.78
2022-11-17T12:45:03.138Z,4.22
2022-11-17T12:51:58.579Z,4.20
2022-11-17T12:59:02.926Z,4.53
2022-11-17T13:06:01.631Z,3.67
2022-11-17T13:20:07.978Z,6.57
2022-11-17T13:27:02.976Z,6.10
2022-11-17T13:34:00.967Z,6.20
2022-11-17T13:40:50.141Z,6.00
2022-11-17T13:47:48.266Z,6.13
2022-11-17T13:54:34.348Z,6.82
2022-11-17T14:01:27.943Z,5.80
2022-11-17T14:08:28.751Z,5.80
2022-11-17T14:15:21.542Z,7.55
2022-11-17T14:22:31.769Z,6.93
2022-11-17T14:29:17.670Z,6.57
2022-11-17T14:36:04.756Z,5.88
2022-11-17T14:42:52.944Z,6.03
2022-11-17T14:49:38.367Z,5.90
2022-11-17T14:56:27.158Z,6.20
2022-11-17T15:03:15.172Z,5.65
2022-11-17T15:10:00.889Z,6.43
2022-11-17T15:16:46.329Z,6.63
2022-11-17T15:23:34.845Z,6.53
2022-11-17T15:30:21.067Z,6.60
2022-11-17T15:37:06.534Z,6.38
2022-11-17T15:43:54.919Z,6.40
2022-11-17T15:50:40.534Z,6.10
2022-11-17T15:57:25.989Z,6.85
2022-11-17T16:04:16.589Z,6.43
2022-11-17T16:11:02.805Z,6.70
2022-11-17T16:17:48.187Z,6.72
2022-11-17T16:24:36.314Z,7.07
2022-11-17T16:31:24.399Z,7.22
2022-11-17T16:38:10.145Z,7.18
2022-11-17T16:44:58.151Z,6.63
2022-11-17T16:51:44.361Z,7.03
2022-11-17T16:58:29.901Z,7.13
2022-11-17T17:05:18.278Z,6.57
2022-11-17T17:12:03.707Z,6.38
2022-11-17T17:18:49.540Z,6.50
2022-11-17T17:25:37.558Z,6.13
2022-11-17T17:32:23.004Z,6.38
2022-11-17T17:39:09.277Z,6.20
2022-11-17T17:46:03.143Z,7.50
2022-11-17T17:52:48.606Z,7.00
2022-11-17T17:59:33.954Z,6.88
2022-11-17T18:06:24.499Z,6.85
2022-11-17T18:13:10.961Z,7.25
2022-11-17T18:19:57.050Z,7.43
2022-11-17T18:26:45.053Z,7.10
2022-11-17T18:33:30.499Z,7.00
2022-11-17T18:40:16.967Z,6.70
2022-11-17T18:47:05.225Z,6.97
2022-11-17T18:53:51.677Z,6.90
2022-11-17T19:00:37.117Z,6.97
2022-11-17T19:07:25.689Z,7.70
2022-11-17T19:14:11.224Z,8.85
2022-11-17T19:20:56.653Z,9.82
2022-11-17T19:27:45.456Z,8.05
2022-11-17T19:34:31.428Z,7.57
2022-11-17T19:41:19.899Z,7.68
2022-11-17T19:48:09.247Z,7.95
2022-11-17T19:54:54.773Z,7.68
2022-11-17T20:01:40.737Z,11.90
2022-11-17T20:08:28.834Z,10.03
2022-11-17T20:15:32.969Z,11.20
2022-11-17T20:22:18.904Z,10.18
2022-11-17T20:29:06.920Z,10.13
2022-11-17T20:35:52.447Z,9.18
2022-11-17T20:42:38.051Z,9.85
2022-11-17T20:49:28.267Z,10.35
2022-11-17T20:56:16.486Z,14.18
2022-11-17T21:03:02.201Z,13.07
2022-11-17T21:09:50.270Z,12.27
2022-11-17T21:16:36.832Z,9.50
2022-11-17T21:23:22.331Z,8.40
2022-11-17T21:30:13.432Z,7.28
2022-11-17T21:36:58.858Z,8.57
2022-11-17T21:43:46.876Z,8.25
2022-11-17T21:50:34.886Z,7.72
2022-11-17T21:57:20.358Z,7.85
2022-11-17T22:04:06.666Z,8.13
2022-11-17T22:10:54.574Z,7.90
2022-11-17T22:17:39.991Z,7.13
2022-11-17T22:24:26.059Z,8.23
2022-11-17T22:31:14.219Z,7.33
2022-11-17T22:38:00.005Z,7.80
2022-11-17T22:44:48.340Z,7.50
2022-11-17T22:51:49.106Z,7.80
2022-11-17T22:58:35.278Z,8.70
2022-11-17T23:05:21.487Z,9.10
2022-11-17T23:12:10.258Z,8.90
2022-11-17T23:18:57.380Z,9.32
2022-11-17T23:25:43.194Z,9.60
2022-11-17T23:32:31.244Z,9.85
2022-11-17T23:39:16.971Z,9.50
2022-11-17T23:46:08.386Z,9.50
2022-11-17T23:52:56.442Z,9.02
2022-11-17T23:59:42.225Z,8.95
